createdAt,value
2023-04-27T00:02:20.173Z,102129.00
2023-04-27T00:04:48.109Z,102124.88
2023-04-27T00:07:15.838Z,102132.44
2023-04-27T00:09:43.358Z,102126.31
2023-04-27T00:12:10.854Z,102130.81
2023-04-27T00:14:38.259Z,102126.31
2023-04-27T00:17:05.637Z,102131.03
2023-04-27T00:19:33.687Z,102120.50
2023-04-27T00:22:01.167Z,102124.00
2023-04-27T00:24:28.642Z,102127.81
2023-04-27T00:26:56.532Z,102123.09
2023-04-27T00:29:23.955Z,102118.81
2023-04-27T00:31:51.371Z,102119.47
2023-04-27T00:34:18.776Z,102118.56
2023-04-27T00:36:46.170Z,102120.91
2023-04-27T00:39:13.750Z,102121.03
2023-04-27T00:41:41.321Z,102126.56
2023-04-27T00:44:08.753Z,102125.03
2023-04-27T00:46:36.285Z,102123.03
2023-04-27T00:49:03.819Z,102123.81
2023-04-27T00:51:32.074Z,102129.94
2023-04-27T00:53:59.722Z,102118.75
2023-04-27T00:56:27.193Z,102121.53
2023-04-27T00:58:54.563Z,102105.19
2023-04-27T01:01:22.057Z,102104.34
2023-04-27T01:03:50.145Z,102100.13
2023-04-27T01:06:17.711Z,102105.97
2023-04-27T01:08:45.630Z,102106.16
2023-04-27T01:11:13.451Z,102100.72
2023-04-27T01:13:40.916Z,102110.16
2023-04-27T01:16:08.373Z,102109.53
2023-04-27T01:18:35.793Z,102122.41
2023-04-27T01:21:03.269Z,102113.75
2023-04-27T01:23:31.066Z,102125.16
2023-04-27T01:25:58.428Z,102125.03
2023-04-27T01:28:25.899Z,102121.34
2023-04-27T01:30:53.346Z,102112.31
2023-04-27T01:33:21.562Z,102109.97
2023-04-27T01:35:49.574Z,102105.81
2023-04-27T01:38:17.808Z,102100.44
2023-04-27T01:40:45.218Z,102076.88
2023-04-27T01:43:12.611Z,102095.69
2023-04-27T01:45:39.961Z,102088.84
2023-04-27T01:48:07.560Z,102094.84
2023-04-27T01:50:34.984Z,102092.06
2023-04-27T01:53:03.391Z,102094.41
2023-04-27T01:55:31.091Z,102089.41
2023-04-27T01:57:58.506Z,102089.25
2023-04-27T02:00:26.025Z,102090.00
2023-04-27T02:02:57.242Z,102095.06
2023-04-27T02:05:25.451Z,102098.38
2023-04-27T02:07:52.895Z,102094.28
2023-04-27T02:10:22.215Z,102091.69
2023-04-27T02:12:49.872Z,102094.94
2023-04-27T02:15:17.439Z,102099.47
2023-04-27T02:17:45.482Z,102093.66
2023-04-27T02:20:12.879Z,102091.94
2023-04-27T02:22:44.525Z,102091.66
2023-04-27T02:25:15.490Z,102100.13
2023-04-27T02:27:43.241Z,102089.63
2023-04-27T02:30:12.349Z,102082.00
2023-04-27T02:32:41.274Z,102080.63
2023-04-27T02:35:08.938Z,102086.00
2023-04-27T02:37:36.751Z,102082.47
2023-04-27T02:40:04.548Z,102076.38
2023-04-27T02:42:33.039Z,102082.25
2023-04-27T02:45:00.585Z,102079.06
2023-04-27T02:47:28.024Z,102074.47
2023-04-27T02:49:55.482Z,102072.69
2023-04-27T02:52:22.956Z,102065.00
2023-04-27T02:54:50.417Z,102065.78
2023-04-27T02:57:17.909Z,102077.53
2023-04-27T02:59:45.562Z,102074.13
2023-04-27T03:02:12.985Z,102078.63
2023-04-27T03:04:40.453Z,102083.97
2023-04-27T03:07:07.953Z,102078.88
2023-04-27T03:09:35.335Z,102079.03
2023-04-27T03:12:02.870Z,102081.69
2023-04-27T03:14:30.425Z,102079.72
2023-04-27T03:16:58.099Z,102086.44
2023-04-27T03:19:25.532Z,102087.94
2023-04-27T03:21:52.962Z,102082.13
2023-04-27T03:24:21.702Z,102087.41
2023-04-27T03:26:49.076Z,102081.47
2023-04-27T03:29:16.460Z,102082.91
2023-04-27T03:31:43.944Z,102082.91
2023-04-27T03:34:11.382Z,102084.75
2023-04-27T03:36:38.788Z,102082.72
2023-04-27T03:39:06.220Z,102082.00
2023-04-27T03:41:33.609Z,102085.78
2023-04-27T03:44:01.043Z,102091.97
2023-04-27T03:46:28.441Z,102077.09
2023-04-27T03:48:55.909Z,102076.13
2023-04-27T03:51:23.327Z,102088.03
2023-04-27T03:53:50.720Z,102085.56
2023-04-27T03:56:18.180Z,102078.75
2023-04-27T03:58:46.811Z,102083.59
2023-04-27T04:01:14.815Z,102093.94
2023-04-27T04:03:42.410Z,102096.44
2023-04-27T04:06:10.062Z,102103.41
2023-04-27T04:08:37.546Z,102098.06
2023-04-27T04:11:05.052Z,102099.53
2023-04-27T04:13:32.491Z,102093.03
2023-04-27T04:16:03.032Z,102101.50
2023-04-27T04:18:30.485Z,102107.16
2023-04-27T04:20:57.948Z,102108.28
2023-04-27T04:23:25.943Z,102111.19
2023-04-27T04:25:54.372Z,102105.34
2023-04-27T04:28:22.457Z,102115.56
2023-04-27T04:30:51.035Z,102114.97
2023-04-27T04:33:18.527Z,102116.06
2023-04-27T04:35:46.145Z,102120.41
2023-04-27T04:38:13.506Z,102114.31
2023-04-27T04:40:42.342Z,102109.03
2023-04-27T04:43:11.132Z,102120.34
2023-04-27T04:45:38.641Z,102119.59
2023-04-27T04:48:06.198Z,102131.66
2023-04-27T04:50:33.692Z,102125.16
2023-04-27T04:53:01.149Z,102123.47
2023-04-27T04:55:28.830Z,102121.66
2023-04-27T04:57:56.209Z,102124.75
2023-04-27T05:00:23.655Z,102123.31
2023-04-27T05:02:51.235Z,102122.41
2023-04-27T05:05:18.902Z,102123.53
2023-04-27T05:07:46.367Z,102127.13
2023-04-27T05:10:13.898Z,102124.94
2023-04-27T05:12:41.328Z,102122.78
2023-04-27T05:15:09.019Z,102127.53
2023-04-27T05:17:36.484Z,102123.47
2023-04-27T05:20:04.985Z,102135.66
2023-04-27T05:22:32.452Z,102135.75
2023-04-27T05:24:59.893Z,102124.06
2023-04-27T05:27:27.298Z,102134.59
2023-04-27T05:29:54.714Z,102129.91
2023-04-27T05:32:22.461Z,102131.06
2023-04-27T05:34:49.843Z,102134.69
2023-04-27T05:37:17.233Z,102139.28
2023-04-27T05:39:44.645Z,102132.44
2023-04-27T05:42:12.073Z,102134.19
2023-04-27T05:44:39.476Z,102122.16
2023-04-27T05:47:06.920Z,102128.56
2023-04-27T05:49:34.318Z,102125.56
2023-04-27T05:52:02.619Z,102128.16
2023-04-27T05:54:29.983Z,102122.44
2023-04-27T05:56:57.443Z,102122.03
2023-04-27T05:59:24.889Z,102125.63
2023-04-27T06:01:52.811Z,102131.88
2023-04-27T06:04:20.369Z,102121.09
2023-04-27T06:06:47.904Z,102125.13
2023-04-27T06:09:15.806Z,102126.91
2023-04-27T06:11:43.612Z,102119.56
2023-04-27T06:14:11.027Z,102131.59
2023-04-27T06:16:38.464Z,102131.13
2023-04-27T06:19:05.907Z,102131.00
2023-04-27T06:21:33.828Z,102126.91
2023-04-27T06:24:01.375Z,102129.88
2023-04-27T06:26:29.120Z,102133.03
2023-04-27T06:28:56.572Z,102136.72
2023-04-27T06:31:24.076Z,102133.44
2023-04-27T06:33:51.642Z,102133.31
2023-04-27T06:36:19.521Z,102131.59
2023-04-27T06:38:46.995Z,102135.56
2023-04-27T06:41:14.637Z,102134.63
2023-04-27T06:43:42.110Z,102137.56
2023-04-27T06:46:09.516Z,102139.00
2023-04-27T06:48:37.024Z,102130.66
2023-04-27T06:51:04.474Z,102128.56
2023-04-27T06:53:32.085Z,102127.03
2023-04-27T06:55:59.717Z,102128.44
2023-04-27T06:58:27.246Z,102121.94
2023-04-27T07:00:54.792Z,102122.63
2023-04-27T07:03:22.676Z,102119.72
2023-04-27T07:05:51.541Z,102126.41
2023-04-27T07:08:18.948Z,102126.56
2023-04-27T07:10:46.499Z,102131.41
2023-04-27T07:13:14.492Z,102136.19
2023-04-27T07:15:41.972Z,102136.16
2023-04-27T07:18:09.751Z,102138.31
2023-04-27T07:20:38.405Z,102134.34
2023-04-27T07:23:06.235Z,102129.91
2023-04-27T07:25:34.007Z,102133.25
2023-04-27T07:28:01.484Z,102132.88
2023-04-27T07:30:30.748Z,102125.53
2023-04-27T07:32:58.779Z,102123.03
2023-04-27T07:35:26.504Z,102125.03
2023-04-27T07:37:53.899Z,102122.28
2023-04-27T07:40:24.003Z,102115.41
2023-04-27T07:42:51.514Z,102119.72
2023-04-27T07:45:18.931Z,102120.72
2023-04-27T07:47:46.493Z,102127.00
2023-04-27T07:50:16.427Z,102125.03
2023-04-27T07:52:43.932Z,102134.03
2023-04-27T07:55:12.133Z,102134.31
2023-04-27T07:57:39.717Z,102128.44
2023-04-27T08:00:09.814Z,102133.53
2023-04-27T08:02:37.565Z,102132.00
2023-04-27T08:05:05.434Z,102124.94
2023-04-27T08:07:37.159Z,102130.25
2023-04-27T08:10:09.615Z,102139.84
2023-04-27T08:12:37.036Z,102132.91
2023-04-27T08:15:04.560Z,102139.03
2023-04-27T08:17:31.970Z,102129.59
2023-04-27T08:19:59.471Z,102134.69
2023-04-27T08:22:26.920Z,102134.03
2023-04-27T08:24:54.261Z,102134.16
2023-04-27T08:27:21.611Z,102128.19
2023-04-27T08:29:49.626Z,102121.25
2023-04-27T08:32:17.068Z,102115.88
2023-04-27T08:34:46.537Z,102114.25
2023-04-27T08:37:14.303Z,102117.81
2023-04-27T08:39:41.774Z,102111.66
2023-04-27T08:42:12.744Z,102117.91
2023-04-27T08:44:43.756Z,102119.59
2023-04-27T08:47:11.608Z,102116.88
2023-04-27T08:49:41.513Z,102109.16
2023-04-27T08:52:15.615Z,102117.84
2023-04-27T08:54:43.514Z,102111.75
2023-04-27T08:57:11.951Z,102112.69
2023-04-27T08:59:39.728Z,102114.41
2023-04-27T09:02:07.560Z,102118.78
2023-04-27T09:04:39.439Z,102110.06
2023-04-27T09:07:13.026Z,102104.72
2023-04-27T09:09:40.477Z,102105.59
2023-04-27T09:12:17.951Z,102101.16
2023-04-27T09:14:56.901Z,102114.44
2023-04-27T09:17:28.203Z,102109.97
2023-04-27T09:20:10.298Z,102103.69
2023-04-27T09:22:44.814Z,102105.28
2023-04-27T09:25:14.821Z,102098.63
2023-04-27T09:27:45.042Z,102095.91
2023-04-27T09:30:15.928Z,102099.41
2023-04-27T09:32:56.048Z,102096.75
2023-04-27T09:35:25.697Z,102099.59
2023-04-27T09:37:53.906Z,102099.16
2023-04-27T09:40:23.638Z,102099.91
2023-04-27T09:42:52.394Z,102098.25
2023-04-27T09:45:20.505Z,102091.44
2023-04-27T09:47:48.216Z,102088.84
2023-04-27T09:50:15.792Z,102087.69
2023-04-27T09:52:43.377Z,102086.22
2023-04-27T09:55:12.124Z,102085.84
2023-04-27T09:57:58.129Z,102091.31
2023-04-27T10:00:37.524Z,102092.22
2023-04-27T10:03:05.132Z,102097.13
2023-04-27T10:06:02.137Z,102095.53
2023-04-27T10:08:30.435Z,102088.03
2023-04-27T10:10:57.835Z,102090.38
2023-04-27T10:13:26.470Z,102085.09
2023-04-27T10:15:54.328Z,102073.91
2023-04-27T10:18:29.839Z,102080.91
2023-04-27T10:20:57.481Z,102077.22
2023-04-27T10:23:25.996Z,102076.28
2023-04-27T10:25:54.743Z,102072.66
2023-04-27T10:28:22.330Z,102076.19
2023-04-27T10:30:50.258Z,102079.44
2023-04-27T10:33:18.893Z,102079.16
2023-04-27T10:35:54.465Z,102070.94
2023-04-27T10:38:23.576Z,102073.88
2023-04-27T10:41:01.882Z,102070.63
2023-04-27T10:43:30.292Z,102076.78
2023-04-27T10:46:13.972Z,102070.72
2023-04-27T10:48:42.373Z,102067.66
2023-04-27T10:51:10.049Z,102074.47
2023-04-27T10:53:38.304Z,102063.97
2023-04-27T10:56:07.065Z,102061.13
2023-04-27T11:01:09.530Z,102057.28
2023-04-27T11:03:37.577Z,102060.91
2023-04-27T11:06:06.222Z,102062.03
2023-04-27T11:08:34.176Z,102051.63
2023-04-27T11:11:01.829Z,102042.94
2023-04-27T11:13:29.463Z,102034.78
2023-04-27T11:15:58.221Z,102038.34
2023-04-27T11:18:31.593Z,102026.28
2023-04-27T11:21:09.434Z,102022.75
2023-04-27T11:23:38.410Z,102021.06
2023-04-27T11:26:15.326Z,102014.16
2023-04-27T11:28:43.519Z,102020.00
2023-04-27T11:31:11.612Z,102013.69
2023-04-27T11:33:40.197Z,102012.84
2023-04-27T11:36:17.818Z,102013.75
2023-04-27T11:38:45.375Z,102003.16
2023-04-27T11:41:13.152Z,102013.69
2023-04-27T11:43:46.048Z,102000.09
2023-04-27T11:46:13.519Z,101994.41
2023-04-27T11:48:41.276Z,102000.84
2023-04-27T11:51:11.324Z,102005.91
2023-04-27T11:53:42.878Z,101993.22
2023-04-27T11:56:11.715Z,101996.34
2023-04-27T11:58:39.873Z,101992.53
2023-04-27T12:01:08.019Z,101998.59
2023-04-27T12:03:37.804Z,101992.22
2023-04-27T12:06:21.521Z,101996.88
2023-04-27T12:08:53.118Z,101997.81
2023-04-27T12:11:20.775Z,101996.25
2023-04-27T12:13:48.302Z,101992.59
2023-04-27T12:16:15.832Z,101991.56
2023-04-27T12:18:43.301Z,101994.44
2023-04-27T12:21:10.870Z,101996.66
2023-04-27T12:23:38.305Z,101992.53
2023-04-27T12:26:06.296Z,101979.69
2023-04-27T12:28:33.786Z,101977.38
2023-04-27T12:31:03.924Z,101984.59
2023-04-27T12:33:31.700Z,101973.53
2023-04-27T12:35:59.193Z,101975.59
2023-04-27T12:38:26.823Z,101972.56
2023-04-27T12:40:54.227Z,101958.31
2023-04-27T12:43:21.753Z,101967.47
2023-04-27T12:45:49.188Z,101957.47
2023-04-27T12:48:17.667Z,101964.13
2023-04-27T12:50:45.441Z,101964.47
2023-04-27T12:53:12.963Z,101957.69
2023-04-27T12:55:40.441Z,101970.75
2023-04-27T12:58:07.987Z,101955.88
2023-04-27T13:00:35.592Z,101954.13
2023-04-27T13:03:03.228Z,101947.59
2023-04-27T13:05:31.991Z,101944.75
2023-04-27T13:07:59.923Z,101950.94
2023-04-27T13:10:27.425Z,101963.03
2023-04-27T13:12:55.448Z,101955.97
2023-04-27T13:15:22.891Z,101955.22
2023-04-27T13:17:52.998Z,101953.06
2023-04-27T13:20:20.573Z,101939.63
2023-04-27T13:22:48.206Z,101940.75
2023-04-27T13:25:16.553Z,101943.47
2023-04-27T13:27:44.219Z,101936.63
2023-04-27T13:30:11.766Z,101939.28
2023-04-27T13:32:39.231Z,101932.59
2023-04-27T13:35:07.760Z,101925.03
2023-04-27T13:37:35.290Z,101924.13
2023-04-27T13:40:02.751Z,101933.81
2023-04-27T13:42:30.181Z,101933.78
2023-04-27T13:44:57.619Z,101929.53
2023-04-27T13:47:25.088Z,101921.09
2023-04-27T13:49:52.544Z,101911.91
2023-04-27T13:52:20.071Z,101919.34
2023-04-27T13:54:47.564Z,101911.91
2023-04-27T13:57:14.951Z,101907.63
2023-04-27T13:59:42.439Z,101907.25
2023-04-27T14:02:09.988Z,101888.00
2023-04-27T14:04:37.452Z,101898.13
2023-04-27T14:07:04.914Z,101885.81
2023-04-27T14:09:32.267Z,101886.88
2023-04-27T14:12:00.310Z,101897.16
2023-04-27T14:14:27.783Z,101887.03
2023-04-27T14:16:56.774Z,101887.25
2023-04-27T14:19:24.261Z,101879.22
2023-04-27T14:21:51.767Z,101873.44
2023-04-27T14:24:19.207Z,101869.63
2023-04-27T14:26:47.590Z,101868.81
2023-04-27T14:29:15.326Z,101864.50
2023-04-27T14:31:43.163Z,101871.09
2023-04-27T14:34:10.867Z,101864.59
2023-04-27T14:36:38.663Z,101859.66
2023-04-27T14:39:07.092Z,101854.13
2023-04-27T14:41:35.499Z,101848.47
2023-04-27T14:44:03.221Z,101848.63
2023-04-27T14:46:30.614Z,101839.56
2023-04-27T14:48:58.001Z,101843.50
2023-04-27T14:51:25.380Z,101836.22
2023-04-27T14:53:52.785Z,101836.84
2023-04-27T14:56:20.178Z,101845.38
2023-04-27T14:58:47.664Z,101845.78
2023-04-27T15:01:15.190Z,101845.56
2023-04-27T15:03:42.861Z,101835.53
2023-04-27T15:06:10.397Z,101845.53
2023-04-27T15:08:37.741Z,101833.44
2023-04-27T15:11:05.163Z,101831.66
2023-04-27T15:13:32.583Z,101818.81
2023-04-27T15:16:00.949Z,101827.44
2023-04-27T15:18:28.471Z,101813.69
2023-04-27T15:20:56.575Z,101815.31
2023-04-27T15:23:24.524Z,101820.56
2023-04-27T15:25:52.982Z,101811.25
2023-04-27T15:28:20.472Z,101808.25
2023-04-27T15:30:48.054Z,101813.97
2023-04-27T15:33:16.511Z,101808.50
2023-04-27T15:35:44.701Z,101811.81
2023-04-27T15:38:13.851Z,101810.22
2023-04-27T15:40:41.531Z,101808.13
2023-04-27T15:43:08.910Z,101793.44
2023-04-27T15:45:36.375Z,101802.78
2023-04-27T15:48:03.844Z,101788.81
2023-04-27T15:50:31.426Z,101799.94
2023-04-27T15:52:58.854Z,101790.38
2023-04-27T15:55:26.334Z,101791.72
2023-04-27T15:57:54.417Z,101795.75
2023-04-27T16:00:22.464Z,101787.47
2023-04-27T16:02:50.440Z,101777.56
2023-04-27T16:05:18.039Z,101773.81
2023-04-27T16:07:45.970Z,101773.53
2023-04-27T16:10:13.800Z,101768.91
2023-04-27T16:12:41.550Z,101758.66
2023-04-27T16:15:11.474Z,101758.28
2023-04-27T16:17:40.118Z,101756.72
2023-04-27T16:20:07.869Z,101753.97
2023-04-27T16:22:36.391Z,101757.03
2023-04-27T16:25:06.698Z,101751.47
2023-04-27T16:27:34.362Z,101750.44
2023-04-27T16:30:02.612Z,101748.34
2023-04-27T16:32:31.049Z,101734.44
2023-04-27T16:35:00.427Z,101734.31
2023-04-27T16:37:27.838Z,101734.19
2023-04-27T16:39:59.338Z,101728.53
2023-04-27T16:42:27.009Z,101723.63
2023-04-27T16:44:54.671Z,101712.13
2023-04-27T16:47:22.698Z,101712.56
2023-04-27T16:49:51.527Z,101703.03
2023-04-27T16:52:19.996Z,101711.19
2023-04-27T16:54:47.378Z,101713.97
2023-04-27T16:57:14.739Z,101712.56
2023-04-27T16:59:42.483Z,101700.75
2023-04-27T17:02:22.990Z,101710.00
2023-04-27T17:04:51.873Z,101722.50
2023-04-27T17:07:19.558Z,101721.66
2023-04-27T17:09:46.934Z,101716.31
2023-04-27T17:12:15.318Z,101727.00
2023-04-27T17:14:42.898Z,101723.16
2023-04-27T17:17:11.554Z,101728.91
2023-04-27T17:19:39.953Z,101719.03
2023-04-27T17:22:08.510Z,101732.44
2023-04-27T17:24:35.979Z,101730.66
2023-04-27T17:27:05.097Z,101718.84
2023-04-27T17:29:32.616Z,101722.63
2023-04-27T17:32:00.144Z,101715.03
2023-04-27T17:34:27.578Z,101723.66
2023-04-27T17:36:54.934Z,101723.72
2023-04-27T17:39:25.121Z,101722.19
2023-04-27T17:41:52.750Z,101716.03
2023-04-27T17:44:20.182Z,101716.09
2023-04-27T17:46:48.618Z,101712.59
2023-04-27T17:49:17.053Z,101716.94
2023-04-27T17:51:45.048Z,101711.94
2023-04-27T17:54:12.486Z,101710.34
2023-04-27T17:56:40.064Z,101706.25
2023-04-27T17:59:08.413Z,101712.34
2023-04-27T18:01:35.987Z,101697.78
2023-04-27T18:04:05.669Z,101702.16
2023-04-27T18:06:33.841Z,101693.53
2023-04-27T18:09:01.279Z,101699.59
2023-04-27T18:11:29.143Z,101698.63
2023-04-27T18:13:57.952Z,101693.75
2023-04-27T18:16:25.740Z,101700.31
2023-04-27T18:18:53.335Z,101695.88
2023-04-27T18:21:20.840Z,101696.81
2023-04-27T18:23:48.275Z,101703.81
2023-04-27T18:26:16.551Z,101707.66
2023-04-27T18:28:44.213Z,101701.34
2023-04-27T18:31:17.975Z,101705.06
2023-04-27T18:33:48.146Z,101697.19
2023-04-27T18:36:15.654Z,101693.66
2023-04-27T18:38:43.095Z,101698.09
2023-04-27T18:41:10.709Z,101699.13
2023-04-27T18:43:38.207Z,101694.66
2023-04-27T18:46:05.761Z,101692.22
2023-04-27T18:48:33.335Z,101693.06
2023-04-27T18:51:00.725Z,101700.84
2023-04-27T18:53:28.539Z,101693.81
2023-04-27T18:55:56.414Z,101690.59
2023-04-27T18:58:24.043Z,101697.44
2023-04-27T19:00:51.522Z,101687.84
2023-04-27T19:03:19.339Z,101690.59
2023-04-27T19:05:47.047Z,101690.53
2023-04-27T19:08:14.453Z,101693.28
2023-04-27T19:10:42.154Z,101690.41
2023-04-27T19:13:10.066Z,101680.19
2023-04-27T19:15:37.566Z,101683.81
2023-04-27T19:18:10.488Z,101683.63
2023-04-27T19:20:39.573Z,101684.63
2023-04-27T19:23:08.022Z,101677.69
2023-04-27T19:25:35.686Z,101681.25
2023-04-27T19:28:03.191Z,101656.66
2023-04-27T19:30:31.105Z,101677.00
2023-04-27T19:32:58.680Z,101680.38
2023-04-27T19:35:27.397Z,101674.19
2023-04-27T19:37:54.853Z,101682.06
2023-04-27T19:40:22.351Z,101675.00
2023-04-27T19:42:49.789Z,101653.19
2023-04-27T19:45:18.022Z,101681.84
2023-04-27T19:47:45.943Z,101680.22
2023-04-27T19:50:13.666Z,101687.03
2023-04-27T19:52:41.355Z,101681.09
2023-04-27T19:55:08.891Z,101676.81
2023-04-27T19:57:36.425Z,101676.78
2023-04-27T20:00:05.180Z,101674.38
2023-04-27T20:02:33.235Z,101664.75
2023-04-27T20:05:01.876Z,101674.50
2023-04-27T20:07:30.148Z,101668.41
2023-04-27T20:09:57.809Z,101663.09
2023-04-27T20:12:47.412Z,101666.53
2023-04-27T20:15:14.192Z,101657.94
2023-04-27T20:17:42.233Z,101651.69
2023-04-27T20:20:10.538Z,101643.84
2023-04-27T20:22:38.265Z,101649.19
2023-04-27T20:25:07.828Z,101648.09
2023-04-27T20:27:35.781Z,101640.28
2023-04-27T20:30:03.616Z,101643.03
2023-04-27T20:32:31.079Z,101653.53
2023-04-27T20:35:00.127Z,101643.09
2023-04-27T20:37:29.013Z,101637.81
2023-04-27T20:39:56.513Z,101636.19
2023-04-27T20:42:24.516Z,101631.66
2023-04-27T20:44:54.794Z,101633.44
2023-04-27T20:47:22.544Z,101624.75
2023-04-27T20:49:50.084Z,101618.75
2023-04-27T20:52:17.703Z,101628.41
2023-04-27T20:54:45.285Z,101623.22
2023-04-27T20:57:14.245Z,101607.59
2023-04-27T20:59:41.972Z,101603.13
2023-04-27T21:02:09.630Z,101597.03
2023-04-27T21:04:37.235Z,101587.53
2023-04-27T21:07:04.770Z,101590.06
2023-04-27T21:09:32.356Z,101593.59
2023-04-27T21:12:00.022Z,101581.41
2023-04-27T21:14:27.504Z,101573.63
2023-04-27T21:16:55.069Z,101577.97
2023-04-27T21:19:22.829Z,101587.53
2023-04-27T21:21:50.361Z,101567.53
2023-04-27T21:24:19.244Z,101564.91
2023-04-27T21:26:46.824Z,101568.41
2023-04-27T21:29:14.234Z,101564.91
2023-04-27T21:31:41.571Z,101562.25
2023-04-27T21:34:09.062Z,101569.25
2023-04-27T21:36:37.173Z,101558.88
2023-04-27T21:39:05.781Z,101543.25
2023-04-27T21:41:35.176Z,101536.25
2023-04-27T21:44:02.872Z,101546.69
2023-04-27T21:46:30.283Z,101536.31
2023-04-27T21:48:57.770Z,101522.41
2023-04-27T21:51:25.203Z,101517.97
2023-04-27T21:53:52.699Z,101510.16
2023-04-27T21:56:20.163Z,101512.69
2023-04-27T21:58:47.702Z,101510.09
2023-04-27T22:01:15.275Z,101505.81
2023-04-27T22:03:42.877Z,101504.97
2023-04-27T22:06:10.716Z,101502.38
2023-04-27T22:08:38.173Z,101500.69
2023-04-27T22:11:05.650Z,101505.03
2023-04-27T22:13:33.035Z,101501.59
2023-04-27T22:16:00.460Z,101498.88
2023-04-27T22:18:27.925Z,101491.16
2023-04-27T22:20:55.496Z,101489.44
2023-04-27T22:23:22.902Z,101496.38
2023-04-27T22:25:50.313Z,101491.94
2023-04-27T22:28:17.767Z,101490.25
2023-04-27T22:30:45.199Z,101478.13
2023-04-27T22:33:12.756Z,101470.09
2023-04-27T22:35:40.402Z,101465.94
2023-04-27T22:38:08.041Z,101468.50
2023-04-27T22:40:35.980Z,101462.34
2023-04-27T22:43:03.723Z,101458.06
2023-04-27T22:45:31.860Z,101452.84
2023-04-27T22:47:59.472Z,101442.47
2023-04-27T22:50:27.518Z,101444.19
2023-04-27T22:52:54.933Z,101440.75
2023-04-27T22:55:22.322Z,101440.75
2023-04-27T22:57:49.969Z,101439.88
2023-04-27T23:00:17.496Z,101438.97
2023-04-27T23:02:45.090Z,101456.41
2023-04-27T23:05:13.344Z,101457.31
2023-04-27T23:07:42.832Z,101465.06
2023-04-27T23:10:10.895Z,101454.69
2023-04-27T23:12:38.744Z,101435.53
2023-04-27T23:15:06.464Z,101438.13
2023-04-27T23:17:34.011Z,101449.47
2023-04-27T23:20:02.059Z,101447.69
2023-04-27T23:22:29.560Z,101445.97
2023-04-27T23:24:56.987Z,101432.09
2023-04-27T23:27:25.095Z,101426.00
2023-04-27T23:29:52.987Z,101412.13
2023-04-27T23:32:20.521Z,101397.31
2023-04-27T23:34:48.127Z,101395.56
2023-04-27T23:37:15.527Z,101386.88
2023-04-27T23:39:42.872Z,101388.63
2023-04-27T23:42:10.235Z,101384.38
2023-04-27T23:44:37.670Z,101399.97
2023-04-27T23:47:05.279Z,101396.50
2023-04-27T23:49:32.713Z,101388.69
2023-04-27T23:52:00.171Z,101393.91
2023-04-27T23:54:31.029Z,101400.94
2023-04-27T23:56:58.783Z,101395.69
2023-04-27T23:59:26.193Z,101390.50
